sensor_id;sensor_type;location;lat;lon;timestamp;pressure;altitude;pressure_sealevel;temperature;humidity
42177;BME280;28126;51.060;19.460;2022-07-10T00:02:46;100165.20;;;25.39;41.56
42177;BME280;28126;51.060;19.460;2022-07-10T00:05:47;100157.77;;;25.37;41.60
42177;BME280;28126;51.060;19.460;2022-07-10T00:08:50;100157.50;;;25.36;41.67
42177;BME280;28126;51.060;19.460;2022-07-10T00:11:51;100154.45;;;25.35;41.70
42177;BME280;28126;51.060;19.460;2022-07-10T00:14:53;100147.55;;;25.32;41.77
42177;BME280;28126;51.060;19.460;2022-07-10T00:17:54;100145.91;;;25.31;41.80
42177;BME280;28126;51.060;19.460;2022-07-10T00:20:56;100146.75;;;25.32;41.82
42177;BME280;28126;51.060;19.460;2022-07-10T00:23:57;100137.93;;;25.30;41.87
42177;BME280;28126;51.060;19.460;2022-07-10T00:27:00;100136.55;;;25.30;41.89
42177;BME280;28126;51.060;19.460;2022-07-10T00:30:01;100136.26;;;25.29;41.89
42177;BME280;28126;51.060;19.460;2022-07-10T00:33:04;100131.03;;;25.27;41.88
42177;BME280;28126;51.060;19.460;2022-07-10T00:36:07;100128.81;;;25.27;42.00
42177;BME280;28126;51.060;19.460;2022-07-10T00:39:10;100128.02;;;25.26;42.05
42177;BME280;28126;51.060;19.460;2022-07-10T00:42:14;100129.64;;;25.24;42.08
42177;BME280;28126;51.060;19.460;2022-07-10T00:45:16;100115.06;;;25.24;42.10
42177;BME280;28126;51.060;19.460;2022-07-10T00:48:17;100122.20;;;25.22;42.14
42177;BME280;28126;51.060;19.460;2022-07-10T00:51:23;100109.25;;;25.23;42.15
42177;BME280;28126;51.060;19.460;2022-07-10T00:54:25;100106.78;;;25.21;42.19
42177;BME280;28126;51.060;19.460;2022-07-10T00:57:27;100111.45;;;25.21;42.24
42177;BME280;28126;51.060;19.460;2022-07-10T01:00:28;100104.02;;;25.21;42.25
42177;BME280;28126;51.060;19.460;2022-07-10T01:03:31;100101.26;;;25.19;42.32
42177;BME280;28126;51.060;19.460;2022-07-10T01:06:32;100098.50;;;25.19;42.30
42177;BME280;28126;51.060;19.460;2022-07-10T01:09:34;100096.30;;;25.18;42.34
42177;BME280;28126;51.060;19.460;2022-07-10T01:12:36;100097.41;;;25.17;42.35
42177;BME280;28126;51.060;19.460;2022-07-10T01:15:38;100090.23;;;25.16;42.40
42177;BME280;28126;51.060;19.460;2022-07-10T01:18:40;100097.11;;;25.16;42.42
42177;BME280;28126;51.060;19.460;2022-07-10T01:21:41;100093.27;;;25.15;42.40
42177;BME280;28126;51.060;19.460;2022-07-10T01:24:43;100088.33;;;25.14;42.48
42177;BME280;28126;51.060;19.460;2022-07-10T01:27:45;100087.22;;;25.15;42.50
42177;BME280;28126;51.060;19.460;2022-07-10T01:30:49;100088.88;;;25.14;42.50
42177;BME280;28126;51.060;19.460;2022-07-10T01:33:51;100077.85;;;25.14;42.53
42177;BME280;28126;51.060;19.460;2022-07-10T01:36:53;100072.89;;;25.13;42.51
42177;BME280;28126;51.060;19.460;2022-07-10T01:39:55;100080.31;;;25.13;42.58
42177;BME280;28126;51.060;19.460;2022-07-10T01:42:57;100075.38;;;25.12;42.63
42177;BME280;28126;51.060;19.460;2022-07-10T01:45:59;100071.79;;;25.12;42.58
42177;BME280;28126;51.060;19.460;2022-07-10T01:49:01;100071.50;;;25.11;42.60
42177;BME280;28126;51.060;19.460;2022-07-10T01:52:04;100075.38;;;25.10;42.71
42177;BME280;28126;51.060;19.460;2022-07-10T01:55:07;100070.13;;;25.11;42.71
42177;BME280;28126;51.060;19.460;2022-07-10T01:58:09;100072.07;;;25.10;42.69
42177;BME280;28126;51.060;19.460;2022-07-10T02:01:12;100076.75;;;25.10;42.71
42177;BME280;28126;51.060;19.460;2022-07-10T02:04:13;100075.91;;;25.09;42.75
42177;BME280;28126;51.060;19.460;2022-07-10T02:07:33;100069.31;;;25.10;42.87
42177;BME280;28126;51.060;19.460;2022-07-10T02:10:35;100062.96;;;25.07;42.74
42177;BME280;28126;51.060;19.460;2022-07-10T02:13:36;100060.50;;;25.08;42.70
42177;BME280;28126;51.060;19.460;2022-07-10T02:16:38;100059.38;;;25.09;42.72
42177;BME280;28126;51.060;19.460;2022-07-10T02:19:39;100056.37;;;25.08;42.90
42177;BME280;28126;51.060;19.460;2022-07-10T02:22:40;100055.25;;;25.09;42.86
42177;BME280;28126;51.060;19.460;2022-07-10T02:25:42;100052.48;;;25.07;42.93
42177;BME280;28126;51.060;19.460;2022-07-10T02:28:44;100050.02;;;25.08;42.97
42177;BME280;28126;51.060;19.460;2022-07-10T02:31:45;100046.44;;;25.07;42.98
42177;BME280;28126;51.060;19.460;2022-07-10T02:34:46;100043.97;;;25.06;43.06
42177;BME280;28126;51.060;19.460;2022-07-10T02:37:48;100048.93;;;25.06;43.04
42177;BME280;28126;51.060;19.460;2022-07-10T02:40:50;100044.80;;;25.06;43.07
42177;BME280;28126;51.060;19.460;2022-07-10T02:43:52;100039.29;;;25.06;43.11
42177;BME280;28126;51.060;19.460;2022-07-10T02:46:55;100035.70;;;25.06;43.19
42177;BME280;28126;51.060;19.460;2022-07-10T02:49:56;100028.52;;;25.05;43.21
42177;BME280;28126;51.060;19.460;2022-07-10T02:52:57;100022.75;;;25.04;43.16
42177;BME280;28126;51.060;19.460;2022-07-10T02:55:59;100029.64;;;25.04;43.21
42177;BME280;28126;51.060;19.460;2022-07-10T02:59:00;100037.06;;;25.03;43.26
42177;BME280;28126;51.060;19.460;2022-07-10T03:02:03;100039.02;;;25.03;43.30
42177;BME280;28126;51.060;19.460;2022-07-10T03:05:06;100044.53;;;25.03;43.31
42177;BME280;28126;51.060;19.460;2022-07-10T03:08:08;100043.40;;;25.01;43.35
42177;BME280;28126;51.060;19.460;2022-07-10T03:11:09;100046.45;;;25.02;43.32
42177;BME280;28126;51.060;19.460;2022-07-10T03:14:11;100045.89;;;25.00;43.40
42177;BME280;28126;51.060;19.460;2022-07-10T03:17:12;100043.97;;;25.01;43.34
42177;BME280;28126;51.060;19.460;2022-07-10T03:20:14;100043.14;;;25.00;43.37
42177;BME280;28126;51.060;19.460;2022-07-10T03:23:15;100048.65;;;25.00;43.43
42177;BME280;28126;51.060;19.460;2022-07-10T03:26:16;100046.73;;;25.01;43.38
42177;BME280;28126;51.060;19.460;2022-07-10T03:29:18;100039.01;;;25.00;43.45
42177;BME280;28126;51.060;19.460;2022-07-10T03:32:20;100036.25;;;25.00;43.48
42177;BME280;28126;51.060;19.460;2022-07-10T03:35:21;100032.66;;;25.00;43.50
42177;BME280;28126;51.060;19.460;2022-07-10T03:38:23;100027.70;;;24.99;43.53
42177;BME280;28126;51.060;19.460;2022-07-10T03:41:24;100029.08;;;24.99;43.52
42177;BME280;28126;51.060;19.460;2022-07-10T03:44:25;100035.96;;;24.99;43.53
42177;BME280;28126;51.060;19.460;2022-07-10T03:47:27;100033.20;;;24.99;43.56
42177;BME280;28126;51.060;19.460;2022-07-10T03:50:28;100031.03;;;24.99;43.58
42177;BME280;28126;51.060;19.460;2022-07-10T03:53:30;100027.44;;;24.98;43.62
42177;BME280;28126;51.060;19.460;2022-07-10T03:56:31;100026.89;;;24.99;43.60
42177;BME280;28126;51.060;19.460;2022-07-10T03:59:47;100031.56;;;24.98;43.64
42177;BME280;28126;51.060;19.460;2022-07-10T04:02:58;100026.34;;;24.97;43.66
42177;BME280;28126;51.060;19.460;2022-07-10T04:05:57;100029.90;;;24.97;43.67
42177;BME280;28126;51.060;19.460;2022-07-10T04:08:58;100032.39;;;24.96;43.70
42177;BME280;28126;51.060;19.460;2022-07-10T04:12:00;100029.64;;;24.96;43.85
42177;BME280;28126;51.060;19.460;2022-07-10T04:15:01;100038.16;;;24.97;43.76
42177;BME280;28126;51.060;19.460;2022-07-10T04:18:03;100031.30;;;24.95;43.77
42177;BME280;28126;51.060;19.460;2022-07-10T04:21:05;100042.03;;;24.96;43.76
42177;BME280;28126;51.060;19.460;2022-07-10T04:24:07;100039.28;;;24.96;43.82
42177;BME280;28126;51.060;19.460;2022-07-10T04:27:08;100037.91;;;24.96;43.82
42177;BME280;28126;51.060;19.460;2022-07-10T04:30:10;100042.03;;;24.96;43.79
42177;BME280;28126;51.060;19.460;2022-07-10T04:33:12;100048.08;;;24.96;43.85
42177;BME280;28126;51.060;19.460;2022-07-10T04:36:14;100048.91;;;24.96;43.88
42177;BME280;28126;51.060;19.460;2022-07-10T04:39:15;100047.54;;;24.96;43.99
42177;BME280;28126;51.060;19.460;2022-07-10T04:42:16;100048.62;;;24.95;44.11
42177;BME280;28126;51.060;19.460;2022-07-10T04:45:18;100053.87;;;24.94;44.22
42177;BME280;28126;51.060;19.460;2022-07-10T04:48:19;100043.39;;;24.94;44.13
42177;BME280;28126;51.060;19.460;2022-07-10T04:51:21;100064.59;;;24.93;44.25
42177;BME280;28126;51.060;19.460;2022-07-10T04:54:24;100060.20;;;24.92;44.23
42177;BME280;28126;51.060;19.460;2022-07-10T04:57:26;100047.27;;;24.93;44.12
42177;BME280;28126;51.060;19.460;2022-07-10T05:00:27;100047.81;;;24.92;44.32
42177;BME280;28126;51.060;19.460;2022-07-10T05:03:29;100060.48;;;24.91;44.33
42177;BME280;28126;51.060;19.460;2022-07-10T05:06:30;100052.77;;;24.90;44.25
42177;BME280;28126;51.060;19.460;2022-07-10T05:09:32;100059.65;;;24.90;44.20
42177;BME280;28126;51.060;19.460;2022-07-10T05:12:33;100063.78;;;24.90;44.18
42177;BME280;28126;51.060;19.460;2022-07-10T05:15:35;100062.14;;;24.89;44.21
42177;BME280;28126;51.060;19.460;2022-07-10T05:18:36;100066.27;;;24.89;44.16
42177;BME280;28126;51.060;19.460;2022-07-10T05:21:37;100062.94;;;24.90;44.12
42177;BME280;28126;51.060;19.460;2022-07-10T05:24:39;100062.69;;;24.89;44.10
42177;BME280;28126;51.060;19.460;2022-07-10T05:27:40;100063.52;;;24.89;44.11
42177;BME280;28126;51.060;19.460;2022-07-10T05:30:42;100067.35;;;24.88;43.94
42177;BME280;28126;51.060;19.460;2022-07-10T05:33:44;100061.59;;;24.87;43.95
42177;BME280;28126;51.060;19.460;2022-07-10T05:36:45;100067.89;;;24.88;43.89
42177;BME280;28126;51.060;19.460;2022-07-10T05:39:46;100068.73;;;24.88;43.91
42177;BME280;28126;51.060;19.460;2022-07-10T05:42:48;100075.61;;;24.88;43.85
42177;BME280;28126;51.060;19.460;2022-07-10T05:45:49;100074.23;;;24.88;44.00
42177;BME280;28126;51.060;19.460;2022-07-10T05:48:51;100072.86;;;24.88;43.92
42177;BME280;28126;51.060;19.460;2022-07-10T05:51:52;100076.16;;;24.88;43.88
42177;BME280;28126;51.060;19.460;2022-07-10T05:54:56;100081.66;;;24.88;43.83
42177;BME280;28126;51.060;19.460;2022-07-10T05:57:58;100088.00;;;24.88;43.83
42177;BME280;28126;51.060;19.460;2022-07-10T06:01:00;100077.53;;;24.88;43.84
42177;BME280;28126;51.060;19.460;2022-07-10T06:04:01;100073.41;;;24.88;43.85
42177;BME280;28126;51.060;19.460;2022-07-10T06:07:04;100076.73;;;24.87;43.93
42177;BME280;28126;51.060;19.460;2022-07-10T06:10:07;100076.98;;;24.88;43.77
42177;BME280;28126;51.060;19.460;2022-07-10T06:13:09;100069.02;;;24.89;43.81
42177;BME280;28126;51.060;19.460;2022-07-10T06:16:10;100075.91;;;24.89;43.90
42177;BME280;28126;51.060;19.460;2022-07-10T06:19:12;100066.27;;;24.89;43.89
42177;BME280;28126;51.060;19.460;2022-07-10T06:22:14;100071.20;;;24.90;43.90
42177;BME280;28126;51.060;19.460;2022-07-10T06:25:34;100075.91;;;24.89;43.89
42177;BME280;28126;51.060;19.460;2022-07-10T06:28:37;100088.56;;;24.90;43.85
42177;BME280;28126;51.060;19.460;2022-07-10T06:31:40;100081.67;;;24.90;43.85
42177;BME280;28126;51.060;19.460;2022-07-10T06:34:41;100073.70;;;24.91;43.90
42177;BME280;28126;51.060;19.460;2022-07-10T06:37:43;100069.58;;;24.91;43.96
42177;BME280;28126;51.060;19.460;2022-07-10T06:40:45;100071.76;;;24.92;43.87
42177;BME280;28126;51.060;19.460;2022-07-10T06:43:48;100061.04;;;24.93;43.90
42177;BME280;28126;51.060;19.460;2022-07-10T06:46:50;100065.97;;;24.93;43.87
42177;BME280;28126;51.060;19.460;2022-07-10T06:50:10;100082.79;;;24.94;43.95
42177;BME280;28126;51.060;19.460;2022-07-10T06:53:12;100065.43;;;24.94;43.97
42177;BME280;28126;51.060;19.460;2022-07-10T06:56:14;100060.75;;;24.94;43.95
42177;BME280;28126;51.060;19.460;2022-07-10T06:59:17;100054.41;;;24.94;43.92
42177;BME280;28126;51.060;19.460;2022-07-10T07:02:19;100064.06;;;24.96;44.03
42177;BME280;28126;51.060;19.460;2022-07-10T07:05:21;100060.20;;;24.97;44.14
42177;BME280;28126;51.060;19.460;2022-07-10T07:08:22;100047.80;;;24.97;44.25
42177;BME280;28126;51.060;19.460;2022-07-10T07:11:24;100059.11;;;24.98;44.33
42177;BME280;28126;51.060;19.460;2022-07-10T07:14:25;100056.36;;;24.98;44.43
42177;BME280;28126;51.060;19.460;2022-07-10T07:17:27;100060.75;;;24.99;44.41
42177;BME280;28126;51.060;19.460;2022-07-10T07:20:37;100069.02;;;24.99;44.32
42177;BME280;28126;51.060;19.460;2022-07-10T07:23:56;100066.55;;;25.00;44.29
42177;BME280;28126;51.060;19.460;2022-07-10T07:26:58;100069.02;;;24.99;44.22
42177;BME280;28126;51.060;19.460;2022-07-10T07:30:09;100061.86;;;24.98;44.12
42177;BME280;28126;51.060;19.460;2022-07-10T07:33:16;100061.03;;;24.98;43.39
42177;BME280;28126;51.060;19.460;2022-07-10T07:36:17;100061.58;;;24.92;43.19
42177;BME280;28126;51.060;19.460;2022-07-10T07:39:20;100079.48;;;24.87;43.20
42177;BME280;28126;51.060;19.460;2022-07-10T07:42:21;100077.26;;;24.84;42.78
42177;BME280;28126;51.060;19.460;2022-07-10T07:45:24;100073.41;;;24.83;42.16
42177;BME280;28126;51.060;19.460;2022-07-10T07:48:26;100084.41;;;24.80;41.80
42177;BME280;28126;51.060;19.460;2022-07-10T07:51:28;100075.88;;;24.77;41.47
42177;BME280;28126;51.060;19.460;2022-07-10T07:54:29;100070.34;;;24.74;41.10
42177;BME280;28126;51.060;19.460;2022-07-10T07:57:31;100066.74;;;24.71;40.73
42177;BME280;28126;51.060;19.460;2022-07-10T08:00:34;100073.91;;;24.70;40.13
42177;BME280;28126;51.060;19.460;2022-07-10T08:03:35;100087.93;;;24.66;40.17
42177;BME280;28126;51.060;19.460;2022-07-10T08:06:37;100088.21;;;24.64;40.24
42177;BME280;28126;51.060;19.460;2022-07-10T08:09:39;100084.90;;;24.62;40.30
42177;BME280;28126;51.060;19.460;2022-07-10T08:12:42;100094.53;;;24.62;40.33
42177;BME280;28126;51.060;19.460;2022-07-10T08:15:44;100087.66;;;24.62;40.49
42177;BME280;28126;51.060;19.460;2022-07-10T08:18:45;100091.48;;;24.61;40.50
42177;BME280;28126;51.060;19.460;2022-07-10T08:21:47;100100.86;;;24.60;40.65
42177;BME280;28126;51.060;19.460;2022-07-10T08:24:49;100097.83;;;24.62;40.33
42177;BME280;28126;51.060;19.460;2022-07-10T08:27:50;100096.98;;;24.61;40.20
42177;BME280;28126;51.060;19.460;2022-07-10T08:30:52;100101.39;;;24.60;39.62
42177;BME280;28126;51.060;19.460;2022-07-10T08:33:53;100102.22;;;24.58;39.68
42177;BME280;28126;51.060;19.460;2022-07-10T08:36:55;100096.98;;;24.56;39.66
42177;BME280;28126;51.060;19.460;2022-07-10T08:39:56;100094.23;;;24.56;39.76
42177;BME280;28126;51.060;19.460;2022-07-10T08:42:59;100099.20;;;24.57;39.82
42177;BME280;28126;51.060;19.460;2022-07-10T08:46:00;100098.36;;;24.56;39.84
42177;BME280;28126;51.060;19.460;2022-07-10T08:49:07;100103.31;;;24.54;39.84
42177;BME280;28126;51.060;19.460;2022-07-10T08:52:23;100095.03;;;24.52;39.78
42177;BME280;28126;51.060;19.460;2022-07-10T08:55:19;100088.43;;;24.50;39.81
42177;BME280;28126;51.060;19.460;2022-07-10T08:58:24;100096.69;;;24.50;39.68
42177;BME280;28126;51.060;19.460;2022-07-10T09:01:27;100114.28;;;24.49;39.79
42177;BME280;28126;51.060;19.460;2022-07-10T09:04:29;100114.58;;;24.50;39.83
42177;BME280;28126;51.060;19.460;2022-07-10T09:07:37;100099.70;;;24.51;39.71
42177;BME280;28126;51.060;19.460;2022-07-10T09:10:41;100108.23;;;24.50;39.72
42177;BME280;28126;51.060;19.460;2022-07-10T09:13:54;100113.46;;;24.51;39.86
42177;BME280;28126;51.060;19.460;2022-07-10T09:16:56;100111.27;;;24.53;39.80
42177;BME280;28126;51.060;19.460;2022-07-10T09:19:57;100117.07;;;24.54;39.92
42177;BME280;28126;51.060;19.460;2022-07-10T09:26:05;100117.63;;;24.56;40.09
42177;BME280;28126;51.060;19.460;2022-07-10T09:29:12;100108.27;;;24.55;40.01
42177;BME280;28126;51.060;19.460;2022-07-10T09:32:14;100112.94;;;24.54;40.12
42177;BME280;28126;51.060;19.460;2022-07-10T09:35:16;100108.53;;;24.51;40.30
42177;BME280;28126;51.060;19.460;2022-07-10T09:38:48;100111.84;;;24.53;40.40
42177;BME280;28126;51.060;19.460;2022-07-10T09:41:51;100111.27;;;24.53;40.21
42177;BME280;28126;51.060;19.460;2022-07-10T09:48:22;100110.73;;;24.54;40.34
42177;BME280;28126;51.060;19.460;2022-07-10T09:51:25;100097.25;;;24.52;40.22
42177;BME280;28126;51.060;19.460;2022-07-10T09:54:27;100112.38;;;24.52;40.25
42177;BME280;28126;51.060;19.460;2022-07-10T09:57:31;100105.77;;;24.53;40.15
42177;BME280;28126;51.060;19.460;2022-07-10T10:00:39;100102.21;;;24.53;39.82
42177;BME280;28126;51.060;19.460;2022-07-10T10:03:43;100103.83;;;24.51;39.52
42177;BME280;28126;51.060;19.460;2022-07-10T10:06:59;100099.70;;;24.51;39.42
42177;BME280;28126;51.060;19.460;2022-07-10T10:10:02;100094.48;;;24.50;39.45
42177;BME280;28126;51.060;19.460;2022-07-10T10:13:07;100101.63;;;24.48;39.39
42177;BME280;28126;51.060;19.460;2022-07-10T10:16:11;100094.20;;;24.51;39.16
42177;BME280;28126;51.060;19.460;2022-07-10T10:19:14;100098.06;;;24.50;38.73
42177;BME280;28126;51.060;19.460;2022-07-10T10:22:35;100093.10;;;24.50;38.70
42177;BME280;28126;51.060;19.460;2022-07-10T10:25:39;100075.21;;;24.50;38.49
42177;BME280;28126;51.060;19.460;2022-07-10T10:28:42;100090.89;;;24.49;38.38
42177;BME280;28126;51.060;19.460;2022-07-10T10:31:44;100096.12;;;24.48;38.45
42177;BME280;28126;51.060;19.460;2022-07-10T10:34:49;100088.41;;;24.48;38.57
42177;BME280;28126;51.060;19.460;2022-07-10T10:37:54;100085.38;;;24.49;38.51
42177;BME280;28126;51.060;19.460;2022-07-10T10:44:23;100086.50;;;24.53;38.62
42177;BME280;28126;51.060;19.460;2022-07-10T10:47:26;100084.60;;;24.56;38.73
42177;BME280;28126;51.060;19.460;2022-07-10T10:50:42;100080.73;;;24.57;38.71
42177;BME280;28126;51.060;19.460;2022-07-10T10:53:46;100081.03;;;24.58;38.69
42177;BME280;28126;51.060;19.460;2022-07-10T10:57:16;100090.11;;;24.61;38.80
42177;BME280;28126;51.060;19.460;2022-07-10T11:00:31;100100.04;;;24.62;38.87
42177;BME280;28126;51.060;19.460;2022-07-10T11:03:35;100085.66;;;24.48;39.30
42177;BME280;28126;51.060;19.460;2022-07-10T11:06:52;100096.17;;;24.58;39.08
42177;BME280;28126;51.060;19.460;2022-07-10T11:10:34;100088.73;;;24.61;39.09
42177;BME280;28126;51.060;19.460;2022-07-10T11:13:39;100093.96;;;24.63;39.10
42177;BME280;28126;51.060;19.460;2022-07-10T11:16:46;100092.03;;;24.61;39.07
42177;BME280;28126;51.060;19.460;2022-07-10T11:19:52;100091.77;;;24.60;39.21
42177;BME280;28126;51.060;19.460;2022-07-10T11:26:11;100092.60;;;24.60;39.27
42177;BME280;28126;51.060;19.460;2022-07-10T11:29:18;100098.92;;;24.58;39.18
42177;BME280;28126;51.060;19.460;2022-07-10T11:32:20;100100.02;;;24.55;38.91
42177;BME280;28126;51.060;19.460;2022-07-10T11:35:21;100092.84;;;24.54;39.14
42177;BME280;28126;51.060;19.460;2022-07-10T11:38:25;100106.06;;;24.54;39.23
42177;BME280;28126;51.060;19.460;2022-07-10T11:41:29;100093.67;;;24.54;39.14
42177;BME280;28126;51.060;19.460;2022-07-10T11:44:31;100094.50;;;24.52;39.08
42177;BME280;28126;51.060;19.460;2022-07-10T11:47:32;100092.01;;;24.53;39.28
42177;BME280;28126;51.060;19.460;2022-07-10T11:50:37;100097.83;;;24.57;39.39
42177;BME280;28126;51.060;19.460;2022-07-10T11:53:39;100084.86;;;24.57;39.44
42177;BME280;28126;51.060;19.460;2022-07-10T11:56:48;100074.69;;;24.58;39.43
42177;BME280;28126;51.060;19.460;2022-07-10T11:59:50;100085.70;;;24.58;39.06
42177;BME280;28126;51.060;19.460;2022-07-10T12:02:53;100090.11;;;24.56;38.91
42177;BME280;28126;51.060;19.460;2022-07-10T12:06:03;100081.55;;;24.55;38.62
42177;BME280;28126;51.060;19.460;2022-07-10T12:09:08;100078.80;;;24.55;38.72
42177;BME280;28126;51.060;19.460;2022-07-10T12:12:10;100088.73;;;24.56;38.72
42177;BME280;28126;51.060;19.460;2022-07-10T12:15:31;100088.45;;;24.58;38.56
42177;BME280;28126;51.060;19.460;2022-07-10T12:18:34;100054.59;;;24.57;38.57
42177;BME280;28126;51.060;19.460;2022-07-10T12:21:36;100077.70;;;24.59;38.47
42177;BME280;28126;51.060;19.460;2022-07-10T12:24:41;100076.61;;;24.57;38.45
42177;BME280;28126;51.060;19.460;2022-07-10T12:27:43;100087.89;;;24.56;38.56
42177;BME280;28126;51.060;19.460;2022-07-10T12:30:47;100102.20;;;24.55;38.78
42177;BME280;28126;51.060;19.460;2022-07-10T12:33:54;100099.19;;;24.54;39.11
42177;BME280;28126;51.060;19.460;2022-07-10T12:36:58;100106.06;;;24.54;39.38
42177;BME280;28126;51.060;19.460;2022-07-10T12:40:00;100108.27;;;24.57;39.46
42177;BME280;28126;51.060;19.460;2022-07-10T12:43:05;100101.66;;;24.61;39.53
42177;BME280;28126;51.060;19.460;2022-07-10T12:46:19;100102.22;;;24.63;39.59
42177;BME280;28126;51.060;19.460;2022-07-10T12:49:22;100094.00;;;24.68;39.69
42177;BME280;28126;51.060;19.460;2022-07-10T12:52:30;100099.22;;;24.69;39.81
42177;BME280;28126;51.060;19.460;2022-07-10T12:55:37;100093.19;;;24.72;39.91
42177;BME280;28126;51.060;19.460;2022-07-10T12:58:45;100092.38;;;24.74;40.08
42177;BME280;28126;51.060;19.460;2022-07-10T13:01:47;100093.20;;;24.75;40.23
42177;BME280;28126;51.060;19.460;2022-07-10T13:04:57;100092.38;;;24.74;40.42
42177;BME280;28126;51.060;19.460;2022-07-10T13:08:16;100091.29;;;24.75;40.59
42177;BME280;28126;51.060;19.460;2022-07-10T13:11:20;100081.92;;;24.76;40.74
42177;BME280;28126;51.060;19.460;2022-07-10T13:14:22;100076.98;;;24.76;40.70
42177;BME280;28126;51.060;19.460;2022-07-10T13:17:24;100081.37;;;24.77;40.69
42177;BME280;28126;51.060;19.460;2022-07-10T13:20:26;100076.97;;;24.78;40.69
42177;BME280;28126;51.060;19.460;2022-07-10T13:23:28;100070.38;;;24.79;40.61
42177;BME280;28126;51.060;19.460;2022-07-10T13:26:31;100065.13;;;24.80;40.58
42177;BME280;28126;51.060;19.460;2022-07-10T13:29:33;100051.37;;;24.80;40.23
42177;BME280;28126;51.060;19.460;2022-07-10T13:32:36;100056.88;;;24.80;40.25
42177;BME280;28126;51.060;19.460;2022-07-10T13:35:40;100050.28;;;24.81;39.81
42177;BME280;28126;51.060;19.460;2022-07-10T13:38:42;100054.97;;;24.83;39.86
42177;BME280;28126;51.060;19.460;2022-07-10T13:41:47;100058.80;;;24.82;39.84
42177;BME280;28126;51.060;19.460;2022-07-10T13:44:51;100065.41;;;24.84;39.77
42177;BME280;28126;51.060;19.460;2022-07-10T13:47:53;100062.09;;;24.82;38.75
42177;BME280;28126;51.060;19.460;2022-07-10T13:51:00;100061.83;;;24.78;38.11
42177;BME280;28126;51.060;19.460;2022-07-10T13:54:02;100072.28;;;24.76;38.25
42177;BME280;28126;51.060;19.460;2022-07-10T13:57:04;100064.86;;;24.77;38.37
42177;BME280;28126;51.060;19.460;2022-07-10T14:00:07;100070.91;;;24.76;37.86
42177;BME280;28126;51.060;19.460;2022-07-10T14:03:11;100069.53;;;24.76;38.25
42177;BME280;28126;51.060;19.460;2022-07-10T14:06:13;100067.34;;;24.76;38.05
42177;BME280;28126;51.060;19.460;2022-07-10T14:09:14;100070.92;;;24.74;38.09
42177;BME280;28126;51.060;19.460;2022-07-10T14:12:16;100054.94;;;24.73;38.06
42177;BME280;28126;51.060;19.460;2022-07-10T14:15:19;100065.41;;;24.74;38.02
42177;BME280;28126;51.060;19.460;2022-07-10T14:18:21;100059.08;;;24.73;38.01
42177;BME280;28126;51.060;19.460;2022-07-10T14:21:42;100060.16;;;24.72;38.33
42177;BME280;28126;51.060;19.460;2022-07-10T14:24:43;100066.42;;;24.55;38.80
42177;BME280;28126;51.060;19.460;2022-07-10T14:27:45;100060.95;;;24.65;38.72
42177;BME280;28126;51.060;19.460;2022-07-10T14:30:49;100057.66;;;24.66;38.74
42177;BME280;28126;51.060;19.460;2022-07-10T14:33:51;100060.13;;;24.67;38.80
42177;BME280;28126;51.060;19.460;2022-07-10T14:36:53;100062.88;;;24.67;38.98
42177;BME280;28126;51.060;19.460;2022-07-10T14:39:54;100062.32;;;24.70;39.11
42177;BME280;28126;51.060;19.460;2022-07-10T14:42:56;100052.98;;;24.71;38.96
42177;BME280;28126;51.060;19.460;2022-07-10T14:45:59;100056.32;;;24.73;38.75
42177;BME280;28126;51.060;19.460;2022-07-10T14:49:05;100055.78;;;24.74;38.41
42177;BME280;28126;51.060;19.460;2022-07-10T14:52:10;100057.41;;;24.72;38.31
42177;BME280;28126;51.060;19.460;2022-07-10T14:55:12;100059.86;;;24.71;37.74
42177;BME280;28126;51.060;19.460;2022-07-10T14:58:17;100056.55;;;24.69;37.50
42177;BME280;28126;51.060;19.460;2022-07-10T15:01:21;100065.92;;;24.68;37.37
42177;BME280;28126;51.060;19.460;2022-07-10T15:04:24;100078.30;;;24.66;37.45
42177;BME280;28126;51.060;19.460;2022-07-10T15:07:25;100084.90;;;24.62;37.90
42177;BME280;28126;51.060;19.460;2022-07-10T15:10:27;100101.37;;;24.57;38.32
42177;BME280;28126;51.060;19.460;2022-07-10T15:13:29;100109.63;;;24.52;38.71
42177;BME280;28126;51.060;19.460;2022-07-10T15:16:31;100106.84;;;24.47;39.07
42177;BME280;28126;51.060;19.460;2022-07-10T15:19:33;100112.90;;;24.44;39.42
42177;BME280;28126;51.060;19.460;2022-07-10T15:22:34;100114.02;;;24.43;39.63
42177;BME280;28126;51.060;19.460;2022-07-10T15:25:35;100108.21;;;24.42;39.80
42177;BME280;28126;51.060;19.460;2022-07-10T15:28:39;100107.39;;;24.44;39.92
42177;BME280;28126;51.060;19.460;2022-07-10T15:31:40;100102.19;;;24.45;39.95
42177;BME280;28126;51.060;19.460;2022-07-10T15:34:42;100102.72;;;24.47;39.99
42177;BME280;28126;51.060;19.460;2022-07-10T15:37:43;100093.38;;;24.48;40.02
42177;BME280;28126;51.060;19.460;2022-07-10T15:40:45;100095.58;;;24.51;40.12
42177;BME280;28126;51.060;19.460;2022-07-10T15:43:47;100092.01;;;24.53;40.27
42177;BME280;28126;51.060;19.460;2022-07-10T15:46:49;100086.50;;;24.53;40.37
42177;BME280;28126;51.060;19.460;2022-07-10T15:49:51;100096.97;;;24.54;40.46
42177;BME280;28126;51.060;19.460;2022-07-10T15:52:52;100092.30;;;24.54;40.49
42177;BME280;28126;51.060;19.460;2022-07-10T15:55:54;100088.17;;;24.54;40.54
42177;BME280;28126;51.060;19.460;2022-07-10T15:58:55;100091.48;;;24.56;40.55
42177;BME280;28126;51.060;19.460;2022-07-10T16:01:58;100090.11;;;24.56;40.58